sensor_id;sensor_type;location;lat;lon;timestamp;pressure;altitude;pressure_sealevel;temperature;humidity
68525;BME280;55524;51.380;13.372;2024-02-28T00:00:05;100777.94;;;3.97;100.00
68525;BME280;55524;51.380;13.372;2024-02-28T00:02:45;100783.19;;;3.90;100.00
68525;BME280;55524;51.380;13.372;2024-02-28T00:05:24;100784.91;;;3.96;100.00
68525;BME280;55524;51.380;13.372;2024-02-28T00:07:57;100777.97;;;3.89;100.00
68525;BME280;55524;51.380;13.372;2024-02-28T00:10:36;100777.09;;;3.84;100.00
68525;BME280;55524;51.380;13.372;2024-02-28T00:13:05;100776.22;;;3.89;100.00
68525;BME280;55524;51.380;13.372;2024-02-28T00:16:17;100781.50;;;3.82;100.00
68525;BME280;55524;51.380;13.372;2024-02-28T00:21:49;100780.59;;;3.86;100.00
68525;BME280;55524;51.380;13.372;2024-02-28T00:27:35;100787.56;;;3.85;100.00
68525;BME280;55524;51.380;13.372;2024-02-28T00:33:16;100781.50;;;3.80;100.00
68525;BME280;55524;51.380;13.372;2024-02-28T00:35:48;100787.59;;;3.79;100.00
68525;BME280;55524;51.380;13.372;2024-02-28T00:42:02;100788.50;;;3.74;100.00
68525;BME280;55524;51.380;13.372;2024-02-28T00:44:48;100792.84;;;3.73;100.00
68525;BME280;55524;51.380;13.372;2024-02-28T00:47:36;100791.97;;;3.76;100.00
68525;BME280;55524;51.380;13.372;2024-02-28T00:53:13;100786.78;;;3.69;100.00
68525;BME280;55524;51.380;13.372;2024-02-28T00:55:54;100789.38;;;3.69;100.00
68525;BME280;55524;51.380;13.372;2024-02-28T00:58:29;100799.81;;;3.74;100.00
68525;BME280;55524;51.380;13.372;2024-02-28T01:01:02;100798.91;;;3.81;100.00
68525;BME280;55524;51.380;13.372;2024-02-28T01:03:49;100788.50;;;3.77;100.00
68525;BME280;55524;51.380;13.372;2024-02-28T01:06:15;100788.50;;;3.69;100.00
68525;BME280;55524;51.380;13.372;2024-02-28T01:08:46;100787.66;;;3.65;100.00
68525;BME280;55524;51.380;13.372;2024-02-28T01:11:21;100796.38;;;3.66;100.00
68525;BME280;55524;51.380;13.372;2024-02-28T01:14:07;100788.50;;;3.67;100.00
68525;BME280;55524;51.380;13.372;2024-02-28T01:16:36;100794.59;;;3.71;100.00
68525;BME280;55524;51.380;13.372;2024-02-28T01:19:06;100797.22;;;3.63;100.00
68525;BME280;55524;51.380;13.372;2024-02-28T01:21:39;100792.88;;;3.65;100.00
68525;BME280;55524;51.380;13.372;2024-02-28T01:24:28;100792.00;;;3.69;100.00
68525;BME280;55524;51.380;13.372;2024-02-28T01:29:53;100785.94;;;3.58;100.00
68525;BME280;55524;51.380;13.372;2024-02-28T01:32:29;100780.69;;;3.63;100.00
68525;BME280;55524;51.380;13.372;2024-02-28T01:35:02;100781.56;;;3.62;100.00
68525;BME280;55524;51.380;13.372;2024-02-28T01:37:28;100791.13;;;3.60;100.00
68525;BME280;55524;51.380;13.372;2024-02-28T01:39:55;100778.94;;;3.62;100.00
68525;BME280;55524;51.380;13.372;2024-02-28T01:42:21;100784.19;;;3.57;100.00
68525;BME280;55524;51.380;13.372;2024-02-28T01:44:50;100772.88;;;3.61;100.00
68525;BME280;55524;51.380;13.372;2024-02-28T01:47:18;100770.25;;;3.55;100.00
68525;BME280;55524;51.380;13.372;2024-02-28T01:49:47;100783.31;;;3.60;100.00
68525;BME280;55524;51.380;13.372;2024-02-28T01:52:20;100778.97;;;3.60;100.00
68525;BME280;55524;51.380;13.372;2024-02-28T01:54:47;100777.22;;;3.58;100.00
68525;BME280;55524;51.380;13.372;2024-02-28T01:57:17;100778.97;;;3.59;100.00
68525;BME280;55524;51.380;13.372;2024-02-28T01:59:43;100773.75;;;3.51;100.00
68525;BME280;55524;51.380;13.372;2024-02-28T02:02:13;100780.75;;;3.49;100.00
68525;BME280;55524;51.380;13.372;2024-02-28T02:04:52;100789.44;;;3.48;100.00
68525;BME280;55524;51.380;13.372;2024-02-28T02:07:28;100776.38;;;3.53;100.00
68525;BME280;55524;51.380;13.372;2024-02-28T02:09:54;100779.84;;;3.52;100.00
68525;BME280;55524;51.380;13.372;2024-02-28T02:12:24;100781.59;;;3.50;100.00
68525;BME280;55524;51.380;13.372;2024-02-28T02:15:00;100781.59;;;3.53;100.00
68525;BME280;55524;51.380;13.372;2024-02-28T02:17:29;100778.13;;;3.49;100.00
68525;BME280;55524;51.380;13.372;2024-02-28T02:19:56;100778.97;;;3.54;100.00
68525;BME280;55524;51.380;13.372;2024-02-28T02:22:32;100774.63;;;3.52;100.00
68525;BME280;55524;51.380;13.372;2024-02-28T02:24:58;100775.53;;;3.46;100.00
68525;BME280;55524;51.380;13.372;2024-02-28T02:27:25;100778.16;;;3.44;100.00
68525;BME280;55524;51.380;13.372;2024-02-28T02:29:54;100783.38;;;3.41;100.00
68525;BME280;55524;51.380;13.372;2024-02-28T02:32:29;100784.25;;;3.45;100.00
68525;BME280;55524;51.380;13.372;2024-02-28T02:34:56;100784.25;;;3.45;100.00
68525;BME280;55524;51.380;13.372;2024-02-28T02:37:25;100788.59;;;3.44;100.00
68525;BME280;55524;51.380;13.372;2024-02-28T02:39:54;100791.19;;;3.46;100.00
68525;BME280;55524;51.380;13.372;2024-02-28T02:42:24;100790.34;;;3.45;100.00
68525;BME280;55524;51.380;13.372;2024-02-28T02:44:51;100791.22;;;3.44;100.00
68525;BME280;55524;51.380;13.372;2024-02-28T02:47:20;100790.31;;;3.47;100.00
68525;BME280;55524;51.380;13.372;2024-02-28T02:49:49;100777.25;;;3.44;100.00
68525;BME280;55524;51.380;13.372;2024-02-28T02:52:21;100794.69;;;3.43;100.00
68525;BME280;55524;51.380;13.372;2024-02-28T02:54:47;100782.47;;;3.44;100.00
68525;BME280;55524;51.380;13.372;2024-02-28T02:57:35;100789.47;;;3.42;100.00
68525;BME280;55524;51.380;13.372;2024-02-28T03:00:00;100783.38;;;3.44;100.00
68525;BME280;55524;51.380;13.372;2024-02-28T03:02:26;100784.25;;;3.45;100.00
68525;BME280;55524;51.380;13.372;2024-02-28T03:04:56;100785.09;;;3.44;100.00
68525;BME280;55524;51.380;13.372;2024-02-28T03:07:22;100782.50;;;3.42;100.00
68525;BME280;55524;51.380;13.372;2024-02-28T03:10:01;100782.50;;;3.42;100.00
68525;BME280;55524;51.380;13.372;2024-02-28T03:12:28;100785.97;;;3.43;100.00
68525;BME280;55524;51.380;13.372;2024-02-28T03:15:00;100788.59;;;3.44;100.00
68525;BME280;55524;51.380;13.372;2024-02-28T03:17:27;100793.81;;;3.41;100.00
68525;BME280;55524;51.380;13.372;2024-02-28T03:19:53;100798.19;;;3.35;100.00
68525;BME280;55524;51.380;13.372;2024-02-28T03:22:20;100799.06;;;3.35;100.00
68525;BME280;55524;51.380;13.372;2024-02-28T03:24:55;100804.28;;;3.41;100.00
68525;BME280;55524;51.380;13.372;2024-02-28T03:27:21;100803.41;;;3.35;100.00
68525;BME280;55524;51.380;13.372;2024-02-28T03:29:47;100806.91;;;3.34;100.00
68525;BME280;55524;51.380;13.372;2024-02-28T03:32:23;100807.75;;;3.37;100.00
68525;BME280;55524;51.380;13.372;2024-02-28T03:34:52;100811.22;;;3.45;100.00
68525;BME280;55524;51.380;13.372;2024-02-28T03:37:27;100808.63;;;3.35;100.00
68525;BME280;55524;51.380;13.372;2024-02-28T03:39:57;100811.25;;;3.35;100.00
68525;BME280;55524;51.380;13.372;2024-02-28T03:42:26;100813.88;;;3.30;100.00
68525;BME280;55524;51.380;13.372;2024-02-28T03:44:52;100811.22;;;3.36;100.00
68525;BME280;55524;51.380;13.372;2024-02-28T03:47:19;100813.84;;;3.38;100.00
68525;BME280;55524;51.380;13.372;2024-02-28T03:49:45;100822.53;;;3.40;100.00
68525;BME280;55524;51.380;13.372;2024-02-28T03:52:11;100830.41;;;3.34;100.00
68525;BME280;55524;51.380;13.372;2024-02-28T03:54:38;100842.56;;;3.39;100.00
68525;BME280;55524;51.380;13.372;2024-02-28T03:57:04;100837.38;;;3.29;100.00
68525;BME280;55524;51.380;13.372;2024-02-28T03:59:33;100844.31;;;3.28;100.00
68525;BME280;55524;51.380;13.372;2024-02-28T04:01:59;100846.06;;;3.31;100.00
68525;BME280;55524;51.380;13.372;2024-02-28T04:04:26;100848.69;;;3.25;100.00
68525;BME280;55524;51.380;13.372;2024-02-28T04:06:55;100862.63;;;3.19;100.00
68525;BME280;55524;51.380;13.372;2024-02-28T04:09:21;100853.03;;;3.19;100.00
68525;BME280;55524;51.380;13.372;2024-02-28T04:12:08;100866.09;;;3.26;100.00
68525;BME280;55524;51.380;13.372;2024-02-28T04:14:37;100880.03;;;3.28;100.00
68525;BME280;55524;51.380;13.372;2024-02-28T04:17:03;100887.84;;;3.25;100.00
68525;BME280;55524;51.380;13.372;2024-02-28T04:19:38;100884.38;;;3.24;100.00
68525;BME280;55524;51.380;13.372;2024-02-28T04:22:08;100887.00;;;3.23;100.00
68525;BME280;55524;51.380;13.372;2024-02-28T04:24:37;100889.59;;;3.19;100.00
68525;BME280;55524;51.380;13.372;2024-02-28T04:27:07;100898.31;;;3.23;100.00
68525;BME280;55524;51.380;13.372;2024-02-28T04:29:56;100897.44;;;3.19;100.00
68525;BME280;55524;51.380;13.372;2024-02-28T04:32:22;100906.16;;;3.17;100.00
68525;BME280;55524;51.380;13.372;2024-02-28T04:34:49;100910.47;;;3.16;100.00
68525;BME280;55524;51.380;13.372;2024-02-28T04:37:24;100903.53;;;3.15;100.00
68525;BME280;55524;51.380;13.372;2024-02-28T04:39:53;100913.97;;;3.15;100.00
68525;BME280;55524;51.380;13.372;2024-02-28T04:42:25;100906.16;;;3.14;100.00
68525;BME280;55524;51.380;13.372;2024-02-28T04:44:51;100911.34;;;3.15;100.00
68525;BME280;55524;51.380;13.372;2024-02-28T04:47:18;100913.09;;;3.15;100.00
68525;BME280;55524;51.380;13.372;2024-02-28T04:49:44;100915.72;;;3.13;100.00
68525;BME280;55524;51.380;13.372;2024-02-28T04:52:10;100918.34;;;3.13;100.00
68525;BME280;55524;51.380;13.372;2024-02-28T04:54:39;100913.97;;;3.12;100.00
68525;BME280;55524;51.380;13.372;2024-02-28T04:57:05;100921.81;;;3.11;100.00
68525;BME280;55524;51.380;13.372;2024-02-28T04:59:32;100923.53;;;3.04;100.00
68525;BME280;55524;51.380;13.372;2024-02-28T05:02:01;100917.44;;;3.07;100.00
68525;BME280;55524;51.380;13.372;2024-02-28T05:04:27;100921.81;;;3.06;100.00
68525;BME280;55524;51.380;13.372;2024-02-28T05:06:53;100925.28;;;3.05;100.00
68525;BME280;55524;51.380;13.372;2024-02-28T05:09:40;100924.41;;;3.12;100.00
68525;BME280;55524;51.380;13.372;2024-02-28T05:12:06;100927.03;;;3.08;100.00
68525;BME280;55524;51.380;13.372;2024-02-28T05:14:34;100930.53;;;3.05;100.00
68525;BME280;55524;51.380;13.372;2024-02-28T05:17:00;100933.09;;;3.08;100.00
68525;BME280;55524;51.380;13.372;2024-02-28T05:19:30;100931.38;;;3.15;100.00
68525;BME280;55524;51.380;13.372;2024-02-28T05:21:57;100940.94;;;3.08;100.00
68525;BME280;55524;51.380;13.372;2024-02-28T05:24:26;100936.59;;;3.04;100.00
68525;BME280;55524;51.380;13.372;2024-02-28T05:26:53;100938.34;;;3.05;100.00
68525;BME280;55524;51.380;13.372;2024-02-28T05:29:22;100938.31;;;3.08;100.00
68525;BME280;55524;51.380;13.372;2024-02-28T05:31:54;100936.59;;;3.07;100.00
68525;BME280;55524;51.380;13.372;2024-02-28T05:34:23;100943.56;;;3.07;100.00
68525;BME280;55524;51.380;13.372;2024-02-28T05:36:52;100945.31;;;3.11;100.00
68525;BME280;55524;51.380;13.372;2024-02-28T05:39:22;100951.38;;;3.04;100.00
68525;BME280;55524;51.380;13.372;2024-02-28T05:41:51;100941.81;;;3.15;100.00
68525;BME280;55524;51.380;13.372;2024-02-28T05:44:29;100941.84;;;3.18;100.00
68525;BME280;55524;51.380;13.372;2024-02-28T05:46:56;100951.41;;;3.13;100.00
68525;BME280;55524;51.380;13.372;2024-02-28T05:49:31;100945.31;;;3.14;100.00
68525;BME280;55524;51.380;13.372;2024-02-28T05:52:06;100957.50;;;3.15;100.00
68525;BME280;55524;51.380;13.372;2024-02-28T05:54:42;100957.50;;;3.15;100.00
68525;BME280;55524;51.380;13.372;2024-02-28T05:57:09;100967.94;;;3.13;100.00
68525;BME280;55524;51.380;13.372;2024-02-28T05:59:55;100977.50;;;3.20;100.00
68525;BME280;55524;51.380;13.372;2024-02-28T06:02:42;100970.56;;;3.21;100.00
68525;BME280;55524;51.380;13.372;2024-02-28T06:05:11;100969.66;;;3.20;100.00
68525;BME280;55524;51.380;13.372;2024-02-28T06:07:46;100979.25;;;3.18;100.00
68525;BME280;55524;51.380;13.372;2024-02-28T06:10:13;100975.78;;;3.19;100.00
68525;BME280;55524;51.380;13.372;2024-02-28T06:12:42;100987.09;;;3.14;100.00
68525;BME280;55524;51.380;13.372;2024-02-28T06:15:11;100979.25;;;3.18;100.00
68525;BME280;55524;51.380;13.372;2024-02-28T06:17:42;100986.22;;;3.13;100.00
68525;BME280;55524;51.380;13.372;2024-02-28T06:20:14;100988.84;;;3.18;100.00
68525;BME280;55524;51.380;13.372;2024-02-28T06:22:43;100993.19;;;3.20;100.00
68525;BME280;55524;51.380;13.372;2024-02-28T06:25:10;101004.50;;;3.18;100.00
68525;BME280;55524;51.380;13.372;2024-02-28T06:27:48;101002.75;;;3.15;100.00
68525;BME280;55524;51.380;13.372;2024-02-28T06:30:23;101003.63;;;3.17;100.00
68525;BME280;55524;51.380;13.372;2024-02-28T06:32:52;101000.16;;;3.25;100.00
68525;BME280;55524;51.380;13.372;2024-02-28T06:35:19;101002.78;;;3.22;100.00
68525;BME280;55524;51.380;13.372;2024-02-28T06:37:45;101001.03;;;3.22;100.00
68525;BME280;55524;51.380;13.372;2024-02-28T06:40:19;101001.03;;;3.22;100.00
68525;BME280;55524;51.380;13.372;2024-02-28T06:42:51;101001.91;;;3.18;100.00
68525;BME280;55524;51.380;13.372;2024-02-28T06:45:27;101001.03;;;3.22;100.00
68525;BME280;55524;51.380;13.372;2024-02-28T06:47:53;100999.31;;;3.29;100.00
68525;BME280;55524;51.380;13.372;2024-02-28T06:50:19;101015.84;;;3.22;100.00
68525;BME280;55524;51.380;13.372;2024-02-28T06:52:45;101013.19;;;3.25;100.00
68525;BME280;55524;51.380;13.372;2024-02-28T06:55:12;101012.38;;;3.29;100.00
68525;BME280;55524;51.380;13.372;2024-02-28T06:57:43;101010.63;;;3.22;100.00
68525;BME280;55524;51.380;13.372;2024-02-28T07:00:31;101021.06;;;3.22;100.00
68525;BME280;55524;51.380;13.372;2024-02-28T07:03:00;101014.94;;;3.24;100.00
68525;BME280;55524;51.380;13.372;2024-02-28T07:05:33;101025.41;;;3.26;100.00
68525;BME280;55524;51.380;13.372;2024-02-28T07:08:03;101023.69;;;3.31;100.00
68525;BME280;55524;51.380;13.372;2024-02-28T07:10:29;101024.56;;;3.25;100.00
68525;BME280;55524;51.380;13.372;2024-02-28T07:13:04;101024.53;;;3.27;100.00
68525;BME280;55524;51.380;13.372;2024-02-28T07:15:33;101035.00;;;3.27;100.00
68525;BME280;55524;51.380;13.372;2024-02-28T07:18:11;101027.19;;;3.37;100.00
68525;BME280;55524;51.380;13.372;2024-02-28T07:20:41;101034.13;;;3.29;100.00
68525;BME280;55524;51.380;13.372;2024-02-28T07:23:10;101041.97;;;3.31;100.00
68525;BME280;55524;51.380;13.372;2024-02-28T07:25:36;101042.81;;;3.19;100.00
68525;BME280;55524;51.380;13.372;2024-02-28T07:28:06;101043.72;;;3.29;100.00
68525;BME280;55524;51.380;13.372;2024-02-28T07:30:32;101046.31;;;3.26;100.00
68525;BME280;55524;51.380;13.372;2024-02-28T07:32:58;101048.91;;;3.26;100.00
68525;BME280;55524;51.380;13.372;2024-02-28T07:35:51;101052.38;;;3.25;100.00
68525;BME280;55524;51.380;13.372;2024-02-28T07:38:19;101055.84;;;3.19;100.00
68525;BME280;55524;51.380;13.372;2024-02-28T07:40:57;101058.47;;;3.24;100.00
68525;BME280;55524;51.380;13.372;2024-02-28T07:43:24;101067.19;;;3.27;100.00
68525;BME280;55524;51.380;13.372;2024-02-28T07:45:54;101067.22;;;3.29;100.00
68525;BME280;55524;51.380;13.372;2024-02-28T07:48:20;101068.94;;;3.25;100.00
68525;BME280;55524;51.380;13.372;2024-02-28T07:50:55;101068.94;;;3.28;100.00
68525;BME280;55524;51.380;13.372;2024-02-28T07:53:22;101069.84;;;3.29;100.00
68525;BME280;55524;51.380;13.372;2024-02-28T07:55:51;101073.28;;;3.28;100.00
68525;BME280;55524;51.380;13.372;2024-02-28T07:58:17;101068.94;;;3.27;100.00
68525;BME280;55524;51.380;13.372;2024-02-28T08:00:44;101069.84;;;3.29;100.00
68525;BME280;55524;51.380;13.372;2024-02-28T08:03:10;101070.69;;;3.32;100.00
68525;BME280;55524;51.380;13.372;2024-02-28T08:05:37;101075.91;;;3.28;100.00
68525;BME280;55524;51.380;13.372;2024-02-28T08:08:08;101081.09;;;3.25;100.00
68525;BME280;55524;51.380;13.372;2024-02-28T08:10:36;101075.91;;;3.29;100.00
68525;BME280;55524;51.380;13.372;2024-02-28T08:13:26;101075.91;;;3.22;100.00
68525;BME280;55524;51.380;13.372;2024-02-28T08:15:55;101079.38;;;3.19;100.00
68525;BME280;55524;51.380;13.372;2024-02-28T08:18:21;101076.75;;;3.22;100.00
68525;BME280;55524;51.380;13.372;2024-02-28T08:20:48;101068.06;;;3.23;100.00
68525;BME280;55524;51.380;13.372;2024-02-28T08:23:15;101081.13;;;3.23;100.00
68525;BME280;55524;51.380;13.372;2024-02-28T08:25:42;101070.69;;;3.29;100.00
68525;BME280;55524;51.380;13.372;2024-02-28T08:28:11;101073.28;;;3.28;100.00
68525;BME280;55524;51.380;13.372;2024-02-28T08:30:58;101080.22;;;3.19;100.00
68525;BME280;55524;51.380;13.372;2024-02-28T08:33:44;101081.97;;;3.20;100.00
68525;BME280;55524;51.380;13.372;2024-02-28T08:36:19;101082.81;;;3.12;100.00
68525;BME280;55524;51.380;13.372;2024-02-28T08:38:45;101081.97;;;3.13;100.00
68525;BME280;55524;51.380;13.372;2024-02-28T08:41:33;101093.25;;;3.12;100.00
68525;BME280;55524;51.380;13.372;2024-02-28T08:43:58;101088.88;;;3.03;100.00
68525;BME280;55524;51.380;13.372;2024-02-28T08:46:45;101089.75;;;3.08;100.00
68525;BME280;55524;51.380;13.372;2024-02-28T08:49:11;101094.09;;;3.05;100.00
68525;BME280;55524;51.380;13.372;2024-02-28T08:51:37;101087.09;;;2.96;100.00
68525;BME280;55524;51.380;13.372;2024-02-28T08:54:06;101096.66;;;2.91;100.00
68525;BME280;55524;51.380;13.372;2024-02-28T08:56:33;101100.16;;;2.96;100.00
68525;BME280;55524;51.380;13.372;2024-02-28T08:59:20;101107.16;;;3.08;100.00
68525;BME280;55524;51.380;13.372;2024-02-28T09:01:46;101108.88;;;3.00;100.00
68525;BME280;55524;51.380;13.372;2024-02-28T09:04:13;101107.16;;;3.02;100.00
68525;BME280;55524;51.380;13.372;2024-02-28T09:06:39;101105.41;;;3.02;100.00
68525;BME280;55524;51.380;13.372;2024-02-28T09:09:16;101099.31;;;3.00;100.00
68525;BME280;55524;51.380;13.372;2024-02-28T09:11:42;101101.94;;;3.05;100.00
68525;BME280;55524;51.380;13.372;2024-02-28T09:14:12;101099.31;;;3.00;100.00
68525;BME280;55524;51.380;13.372;2024-02-28T09:16:41;101100.19;;;2.98;100.00
68525;BME280;55524;51.380;13.372;2024-02-28T09:19:07;101101.94;;;3.05;100.00
68525;BME280;55524;51.380;13.372;2024-02-28T09:21:34;101105.34;;;2.93;100.00
68525;BME280;55524;51.380;13.372;2024-02-28T09:24:03;101103.66;;;2.98;100.00
68525;BME280;55524;51.380;13.372;2024-02-28T09:26:36;101105.44;;;3.07;100.00
68525;BME280;55524;51.380;13.372;2024-02-28T09:29:04;101109.81;;;3.15;100.00
68525;BME280;55524;51.380;13.372;2024-02-28T09:31:33;101111.56;;;3.13;100.00
68525;BME280;55524;51.380;13.372;2024-02-28T09:34:00;101118.50;;;3.10;100.00
68525;BME280;55524;51.380;13.372;2024-02-28T09:36:39;101124.63;;;3.19;100.00
68525;BME280;55524;51.380;13.372;2024-02-28T09:39:31;101129.88;;;3.23;100.00
68525;BME280;55524;51.380;13.372;2024-02-28T09:41:58;101129.00;;;3.27;100.00
68525;BME280;55524;51.380;13.372;2024-02-28T09:44:27;101132.44;;;3.16;100.00
68525;BME280;55524;51.380;13.372;2024-02-28T09:46:54;101140.28;;;3.15;100.00
68525;BME280;55524;51.380;13.372;2024-02-28T09:49:22;101136.81;;;3.13;100.00
68525;BME280;55524;51.380;13.372;2024-02-28T09:51:50;101144.59;;;3.07;100.00
68525;BME280;55524;51.380;13.372;2024-02-28T09:54:17;101146.28;;;2.99;100.00
68525;BME280;55524;51.380;13.372;2024-02-28T09:56:43;101143.72;;;3.06;100.00
68525;BME280;55524;51.380;13.372;2024-02-28T09:59:11;101150.63;;;2.96;100.00
68525;BME280;55524;51.380;13.372;2024-02-28T10:01:53;101146.28;;;2.94;100.00
68525;BME280;55524;51.380;13.372;2024-02-28T10:04:21;101153.28;;;3.01;100.00
68525;BME280;55524;51.380;13.372;2024-02-28T10:06:49;101154.13;;;2.97;100.00
68525;BME280;55524;51.380;13.372;2024-02-28T10:09:24;101159.38;;;3.03;100.00
68525;BME280;55524;51.380;13.372;2024-02-28T10:11:50;101158.53;;;3.12;100.00
68525;BME280;55524;51.380;13.372;2024-02-28T10:14:28;101156.75;;;3.02;100.00
68525;BME280;55524;51.380;13.372;2024-02-28T10:16:58;101162.88;;;3.08;100.00
68525;BME280;55524;51.380;13.372;2024-02-28T10:19:28;101160.25;;;3.04;100.00
68525;BME280;55524;51.380;13.372;2024-02-28T10:21:57;101162.88;;;3.05;100.00
68525;BME280;55524;51.380;13.372;2024-02-28T10:24:27;101164.59;;;3.05;100.00
68525;BME280;55524;51.380;13.372;2024-02-28T10:27:25;101162.00;;;3.12;100.00
68525;BME280;55524;51.380;13.372;2024-02-28T10:29:51;101173.34;;;3.10;100.00
68525;BME280;55524;51.380;13.372;2024-02-28T10:32:18;101166.38;;;3.12;100.00
68525;BME280;55524;51.380;13.372;2024-02-28T10:34:45;101167.28;;;3.17;100.00
68525;BME280;55524;51.380;13.372;2024-02-28T10:37:13;101169.91;;;3.28;100.00
68525;BME280;55524;51.380;13.372;2024-02-28T10:39:50;101169.91;;;3.22;100.00
68525;BME280;55524;51.380;13.372;2024-02-28T10:42:21;101169.88;;;3.18;100.00
68525;BME280;55524;51.380;13.372;2024-02-28T10:44:50;101169.91;;;3.25;100.00
68525;BME280;55524;51.380;13.372;2024-02-28T10:47:18;101173.44;;;3.34;100.00
68525;BME280;55524;51.380;13.372;2024-02-28T10:49:48;101163.03;;;3.42;100.00
68525;BME280;55524;51.380;13.372;2024-02-28T10:52:15;101174.34;;;3.45;100.00
68525;BME280;55524;51.380;13.372;2024-02-28T10:54:52;101181.34;;;3.45;100.00
68525;BME280;55524;51.380;13.372;2024-02-28T10:57:23;101184.84;;;3.49;100.00
68525;BME280;55524;51.380;13.372;2024-02-28T10:59:51;101194.41;;;3.54;100.00
68525;BME280;55524;51.380;13.372;2024-02-28T11:02:22;101184.81;;;3.52;100.00
68525;BME280;55524;51.380;13.372;2024-02-28T11:04:54;101190.94;;;3.58;100.00
68525;BME280;55524;51.380;13.372;2024-02-28T11:07:21;101190.97;;;3.61;100.00
68525;BME280;55524;51.380;13.372;2024-02-28T11:09:48;101184.88;;;3.61;100.00
68525;BME280;55524;51.380;13.372;2024-02-28T11:12:29;101190.94;;;3.63;100.00
68525;BME280;55524;51.380;13.372;2024-02-28T11:15:02;101197.06;;;3.66;100.00
68525;BME280;55524;51.380;13.372;2024-02-28T11:17:32;101197.94;;;3.72;100.00
68525;BME280;55524;51.380;13.372;2024-02-28T11:19:59;101188.34;;;3.58;100.00
68525;BME280;55524;51.380;13.372;2024-02-28T11:22:28;101189.19;;;3.59;100.00
68525;BME280;55524;51.380;13.372;2024-02-28T11:24:55;101200.53;;;3.53;100.00
68525;BME280;55524;51.380;13.372;2024-02-28T11:27:22;101197.03;;;3.59;100.00
68525;BME280;55524;51.380;13.372;2024-02-28T11:29:48;101194.44;;;3.59;100.00
68525;BME280;55524;51.380;13.372;2024-02-28T11:32:15;101187.47;;;3.64;100.00
68525;BME280;55524;51.380;13.372;2024-02-28T11:34:42;101187.50;;;3.70;100.00
68525;BME280;55524;51.380;13.372;2024-02-28T11:37:10;101191.03;;;3.84;100.00
68525;BME280;55524;51.380;13.372;2024-02-28T11:39:37;101193.66;;;4.03;100.00
68525;BME280;55524;51.380;13.372;2024-02-28T11:42:14;101189.31;;;4.08;100.00
68525;BME280;55524;51.380;13.372;2024-02-28T11:44:40;101194.53;;;4.08;100.00
68525;BME280;55524;51.380;13.372;2024-02-28T11:47:10;101182.34;;;4.08;100.00
68525;BME280;55524;51.380;13.372;2024-02-28T11:49:40;101186.72;;;4.14;100.00
68525;BME280;55524;51.380;13.372;2024-02-28T11:52:08;101186.72;;;4.22;100.00
68525;BME280;55524;51.380;13.372;2024-02-28T11:54:37;101181.47;;;4.22;100.00
68525;BME280;55524;51.380;13.372;2024-02-28T11:57:08;101186.72;;;4.28;100.00
68525;BME280;55524;51.380;13.372;2024-02-28T11:59:39;101196.31;;;4.42;100.00
68525;BME280;55524;51.380;13.372;2024-02-28T12:02:15;101190.22;;;4.30;100.00
68525;BME280;55524;51.380;13.372;2024-02-28T12:04:42;101188.47;;;4.26;100.00
68525;BME280;55524;51.380;13.372;2024-02-28T12:07:12;101188.47;;;4.42;100.00
68525;BME280;55524;51.380;13.372;2024-02-28T12:10:01;101191.97;;;4.60;100.00
68525;BME280;55524;51.380;13.372;2024-02-28T12:12:31;101183.19;;;4.81;100.00
68525;BME280;55524;51.380;13.372;2024-02-28T12:15:03;101165.69;;;4.90;100.00
68525;BME280;55524;51.380;13.372;2024-02-28T12:17:40;101171.81;;;5.00;100.00
68525;BME280;55524;51.380;13.372;2024-02-28T12:20:12;101156.13;;;4.92;100.00
68525;BME280;55524;51.380;13.372;2024-02-28T12:22:41;101169.19;;;5.03;100.00
68525;BME280;55524;51.380;13.372;2024-02-28T12:25:11;101160.47;;;4.92;100.00
68525;BME280;55524;51.380;13.372;2024-02-28T12:27:37;101153.50;;;4.86;100.00
68525;BME280;55524;51.380;13.372;2024-02-28T12:30:06;101161.28;;;5.09;100.00
68525;BME280;55524;51.380;13.372;2024-02-28T12:32:33;101149.09;;;5.07;100.00
68525;BME280;55524;51.380;13.372;2024-02-28T12:35:02;101157.78;;;5.16;100.00
68525;BME280;55524;51.380;13.372;2024-02-28T12:37:50;101154.25;;;5.27;100.00
68525;BME280;55524;51.380;13.372;2024-02-28T12:40:25;101128.97;;;5.16;100.00
68525;BME280;55524;51.380;13.372;2024-02-28T12:42:52;101121.94;;;5.22;100.00
68525;BME280;55524;51.380;13.372;2024-02-28T12:45:18;101118.16;;;5.76;100.00
68525;BME280;55524;51.380;13.372;2024-02-28T12:47:44;101096.25;;;5.82;100.00
68525;BME280;55524;51.380;13.372;2024-02-28T12:50:11;101098.06;;;5.74;100.00
68525;BME280;55524;51.380;13.372;2024-02-28T12:52:46;101067.47;;;5.73;100.00
68525;BME280;55524;51.380;13.372;2024-02-28T12:55:19;101054.19;;;5.99;100.00
68525;BME280;55524;51.380;13.372;2024-02-28T12:57:47;101056.41;;;6.40;100.00
68525;BME280;55524;51.380;13.372;2024-02-28T13:00:14;101071.50;;;6.20;100.00
68525;BME280;55524;51.380;13.372;2024-02-28T13:02:44;101072.47;;;6.11;100.00
68525;BME280;55524;51.380;13.372;2024-02-28T13:05:12;101076.00;;;6.04;100.00
68525;BME280;55524;51.380;13.372;2024-02-28T13:07:41;101092.69;;;5.98;100.00
68525;BME280;55524;51.380;13.372;2024-02-28T13:10:07;101080.56;;;5.76;100.00
68525;BME280;55524;51.380;13.372;2024-02-28T13:12:35;101083.25;;;5.65;100.00
68525;BME280;55524;51.380;13.372;2024-02-28T13:15:01;101078.00;;;5.65;100.00
68525;BME280;55524;51.380;13.372;2024-02-28T13:17:49;101091.03;;;5.77;100.00